Página principal
METAR-TAF:

METAR-TAF

Aeroportos :

Ecaterimburgo, Rússia

Aeroporto Internacional de Ecaterimburgo-Koltsovo

latitude: 56-50N, longitude: 060-38E, altura: 237 m

Observação actual do tempo

O boletim foi feito há 39 minutos, às 11:30 UTC
Vento 4 kt de este
Temperatura -21°C
Humidade 84%
Pressão 1034 hPa
Visibilidade: 0650 m
nevoeiro

METAR: USSS 121130Z 10002MPS 3700 0650S FG NSC M21/M23 Q1034 R26R/450245 TEMPO 0300 FG VV002 RMK QFE754/1006

Hora: 17:09 (12:09 UTC)

Previsão

O boletim foi feito há 1 hora e 14 minutos, às 10:55 UTC
Previsão válida de 12 às 12 UTC a 13 às 12 UTC
Vento 6 kt de sudeste
Visibilidade: 3100 m
Nuvens dispersasa uma altura de 1100 ft
neblina
Temporariamente
de 12 às 12 UTC a 13 às 06 UTC
Visibilidade: 0300 m
a uma altura de 200 ft
nevoeiro
Tornando-se
de 13 às 06 UTC a 13 às 08 UTC
Visibilidade 10 km ou mais
Nuvens dispersasa uma altura de 1500 ft

TAF: USSS 121055Z 1212/1312 14003MPS 3100 BR SCT011 TEMPO 1212/1306 0300 FG VV002 BECMG 1306/1308 9999 NSW SCT015

Observações e previsões do tempo de mais de 4000 aeroportos (mensagens METAR e TAF).

As estações disponíveis são os pontos amarelos e vermelhos sobre o mapa.

Mova o rato sobre o mapa para ver o nome da estação.

Depois clique no ponto para visualizar as observações e previsões meteorológicas.

Para alterar o mapa : clique nos botões verdes com uma cruz preta para aumentar o zoom; no botão verde com uma pitada de zoom; ou nas setas verdes para mapas adjacentes.


METAR-TAF: